sensor_id;sensor_type;location;lat;lon;timestamp;P1;durP1;ratioP1;P2;durP2;ratioP2
19585;SDS011;9939;49.246;9.106;2024-03-06T00:01:56;14.87;;;9.40;;
19585;SDS011;9939;49.246;9.106;2024-03-06T00:04:23;15.03;;;10.00;;
19585;SDS011;9939;49.246;9.106;2024-03-06T00:06:50;14.83;;;9.83;;
19585;SDS011;9939;49.246;9.106;2024-03-06T00:09:19;14.87;;;9.33;;
19585;SDS011;9939;49.246;9.106;2024-03-06T00:11:46;14.47;;;9.83;;
19585;SDS011;9939;49.246;9.106;2024-03-06T00:14:13;15.87;;;10.10;;
19585;SDS011;9939;49.246;9.106;2024-03-06T00:16:40;16.20;;;10.43;;
19585;SDS011;9939;49.246;9.106;2024-03-06T00:19:07;14.57;;;9.50;;
19585;SDS011;9939;49.246;9.106;2024-03-06T00:21:34;15.97;;;10.60;;
19585;SDS011;9939;49.246;9.106;2024-03-06T00:24:02;15.30;;;9.33;;
19585;SDS011;9939;49.246;9.106;2024-03-06T00:26:30;16.00;;;10.10;;
19585;SDS011;9939;49.246;9.106;2024-03-06T00:28:57;16.13;;;10.00;;
19585;SDS011;9939;49.246;9.106;2024-03-06T00:31:24;14.83;;;10.97;;
19585;SDS011;9939;49.246;9.106;2024-03-06T00:33:51;15.17;;;10.50;;
19585;SDS011;9939;49.246;9.106;2024-03-06T00:36:18;21.17;;;11.00;;
19585;SDS011;9939;49.246;9.106;2024-03-06T00:38:45;17.67;;;11.00;;
19585;SDS011;9939;49.246;9.106;2024-03-06T00:41:11;16.80;;;11.47;;
19585;SDS011;9939;49.246;9.106;2024-03-06T00:43:39;16.90;;;11.80;;
19585;SDS011;9939;49.246;9.106;2024-03-06T00:46:06;19.70;;;11.17;;
19585;SDS011;9939;49.246;9.106;2024-03-06T00:48:33;18.13;;;10.73;;
19585;SDS011;9939;49.246;9.106;2024-03-06T00:50:59;16.37;;;10.87;;
19585;SDS011;9939;49.246;9.106;2024-03-06T00:53:26;17.57;;;11.50;;
19585;SDS011;9939;49.246;9.106;2024-03-06T00:55:53;19.07;;;12.27;;
19585;SDS011;9939;49.246;9.106;2024-03-06T00:58:20;16.13;;;11.53;;
19585;SDS011;9939;49.246;9.106;2024-03-06T01:00:47;18.70;;;12.83;;
19585;SDS011;9939;49.246;9.106;2024-03-06T01:03:14;21.37;;;13.00;;
19585;SDS011;9939;49.246;9.106;2024-03-06T01:05:41;18.87;;;12.50;;
19585;SDS011;9939;49.246;9.106;2024-03-06T01:08:08;19.33;;;11.93;;
19585;SDS011;9939;49.246;9.106;2024-03-06T01:10:35;18.67;;;12.93;;
19585;SDS011;9939;49.246;9.106;2024-03-06T01:13:02;19.30;;;12.43;;
19585;SDS011;9939;49.246;9.106;2024-03-06T01:15:29;18.07;;;12.53;;
19585;SDS011;9939;49.246;9.106;2024-03-06T01:17:55;20.07;;;13.33;;
19585;SDS011;9939;49.246;9.106;2024-03-06T01:20:23;21.90;;;13.30;;
19585;SDS011;9939;49.246;9.106;2024-03-06T01:22:51;20.07;;;13.20;;
19585;SDS011;9939;49.246;9.106;2024-03-06T01:25:18;20.13;;;14.17;;
19585;SDS011;9939;49.246;9.106;2024-03-06T01:27:45;20.93;;;13.90;;
19585;SDS011;9939;49.246;9.106;2024-03-06T01:30:11;21.50;;;13.33;;
19585;SDS011;9939;49.246;9.106;2024-03-06T01:32:38;22.30;;;14.30;;
19585;SDS011;9939;49.246;9.106;2024-03-06T01:35:05;21.80;;;13.20;;
19585;SDS011;9939;49.246;9.106;2024-03-06T01:37:33;19.57;;;13.00;;
19585;SDS011;9939;49.246;9.106;2024-03-06T01:40:00;20.77;;;13.27;;
19585;SDS011;9939;49.246;9.106;2024-03-06T01:42:27;21.20;;;13.30;;
19585;SDS011;9939;49.246;9.106;2024-03-06T01:44:54;19.67;;;13.17;;
19585;SDS011;9939;49.246;9.106;2024-03-06T01:47:21;21.03;;;13.17;;
19585;SDS011;9939;49.246;9.106;2024-03-06T01:49:48;20.77;;;13.23;;
19585;SDS011;9939;49.246;9.106;2024-03-06T01:52:15;17.77;;;12.70;;
19585;SDS011;9939;49.246;9.106;2024-03-06T01:54:44;18.00;;;11.67;;
19585;SDS011;9939;49.246;9.106;2024-03-06T01:57:11;20.13;;;13.17;;
19585;SDS011;9939;49.246;9.106;2024-03-06T01:59:39;18.97;;;12.77;;
19585;SDS011;9939;49.246;9.106;2024-03-06T02:02:08;19.90;;;13.70;;
19585;SDS011;9939;49.246;9.106;2024-03-06T02:04:37;22.63;;;13.27;;
19585;SDS011;9939;49.246;9.106;2024-03-06T02:07:08;19.20;;;13.23;;
19585;SDS011;9939;49.246;9.106;2024-03-06T02:09:39;21.03;;;13.73;;
19585;SDS011;9939;49.246;9.106;2024-03-06T02:12:06;25.13;;;14.37;;
19585;SDS011;9939;49.246;9.106;2024-03-06T02:14:36;24.33;;;14.00;;
19585;SDS011;9939;49.246;9.106;2024-03-06T02:17:03;20.07;;;12.87;;
19585;SDS011;9939;49.246;9.106;2024-03-06T02:19:37;20.47;;;13.97;;
19585;SDS011;9939;49.246;9.106;2024-03-06T02:22:08;20.97;;;13.57;;
19585;SDS011;9939;49.246;9.106;2024-03-06T02:24:35;23.13;;;13.40;;
19585;SDS011;9939;49.246;9.106;2024-03-06T02:27:03;20.23;;;13.80;;
19585;SDS011;9939;49.246;9.106;2024-03-06T02:29:34;20.53;;;13.30;;
19585;SDS011;9939;49.246;9.106;2024-03-06T02:32:01;24.53;;;15.00;;
19585;SDS011;9939;49.246;9.106;2024-03-06T02:34:30;21.30;;;13.87;;
19585;SDS011;9939;49.246;9.106;2024-03-06T02:36:57;21.70;;;13.93;;
19585;SDS011;9939;49.246;9.106;2024-03-06T02:39:24;21.13;;;14.20;;
19585;SDS011;9939;49.246;9.106;2024-03-06T02:41:51;24.10;;;14.33;;
19585;SDS011;9939;49.246;9.106;2024-03-06T02:44:18;24.10;;;14.30;;
19585;SDS011;9939;49.246;9.106;2024-03-06T02:46:48;21.17;;;12.87;;
19585;SDS011;9939;49.246;9.106;2024-03-06T02:49:15;20.53;;;13.50;;
19585;SDS011;9939;49.246;9.106;2024-03-06T02:51:43;19.37;;;12.97;;
19585;SDS011;9939;49.246;9.106;2024-03-06T02:54:10;21.70;;;13.53;;
19585;SDS011;9939;49.246;9.106;2024-03-06T02:57:03;19.53;;;13.13;;
19585;SDS011;9939;49.246;9.106;2024-03-06T02:59:30;17.00;;;12.23;;
19585;SDS011;9939;49.246;9.106;2024-03-06T03:01:56;22.17;;;13.60;;
19585;SDS011;9939;49.246;9.106;2024-03-06T03:04:23;24.73;;;14.30;;
19585;SDS011;9939;49.246;9.106;2024-03-06T03:06:51;22.00;;;13.43;;
19585;SDS011;9939;49.246;9.106;2024-03-06T03:09:18;22.30;;;15.00;;
19585;SDS011;9939;49.246;9.106;2024-03-06T03:11:44;22.73;;;14.37;;
19585;SDS011;9939;49.246;9.106;2024-03-06T03:14:11;23.83;;;13.63;;
19585;SDS011;9939;49.246;9.106;2024-03-06T03:16:38;19.70;;;13.47;;
19585;SDS011;9939;49.246;9.106;2024-03-06T03:19:05;21.20;;;13.30;;
19585;SDS011;9939;49.246;9.106;2024-03-06T03:21:34;21.20;;;12.77;;
19585;SDS011;9939;49.246;9.106;2024-03-06T03:24:01;20.10;;;13.23;;
19585;SDS011;9939;49.246;9.106;2024-03-06T03:26:29;20.07;;;13.13;;
19585;SDS011;9939;49.246;9.106;2024-03-06T03:28:56;21.80;;;14.07;;
19585;SDS011;9939;49.246;9.106;2024-03-06T03:31:23;23.57;;;14.57;;
19585;SDS011;9939;49.246;9.106;2024-03-06T03:33:50;22.50;;;14.67;;
19585;SDS011;9939;49.246;9.106;2024-03-06T03:36:17;23.73;;;15.47;;
19585;SDS011;9939;49.246;9.106;2024-03-06T03:38:44;24.93;;;15.30;;
19585;SDS011;9939;49.246;9.106;2024-03-06T03:41:11;25.17;;;15.07;;
19585;SDS011;9939;49.246;9.106;2024-03-06T03:43:40;24.37;;;15.93;;
19585;SDS011;9939;49.246;9.106;2024-03-06T03:46:07;25.57;;;15.53;;
19585;SDS011;9939;49.246;9.106;2024-03-06T03:48:35;22.10;;;14.73;;
19585;SDS011;9939;49.246;9.106;2024-03-06T03:51:04;23.30;;;14.77;;
19585;SDS011;9939;49.246;9.106;2024-03-06T03:53:32;24.10;;;15.30;;
19585;SDS011;9939;49.246;9.106;2024-03-06T03:56:02;23.73;;;15.13;;
19585;SDS011;9939;49.246;9.106;2024-03-06T03:58:29;25.13;;;15.50;;
19585;SDS011;9939;49.246;9.106;2024-03-06T04:00:56;24.33;;;15.93;;
19585;SDS011;9939;49.246;9.106;2024-03-06T04:03:23;28.13;;;17.37;;
19585;SDS011;9939;49.246;9.106;2024-03-06T04:05:51;24.07;;;15.53;;
19585;SDS011;9939;49.246;9.106;2024-03-06T04:08:18;26.07;;;15.60;;
19585;SDS011;9939;49.246;9.106;2024-03-06T04:10:45;24.67;;;15.07;;
19585;SDS011;9939;49.246;9.106;2024-03-06T04:13:12;22.63;;;13.53;;
19585;SDS011;9939;49.246;9.106;2024-03-06T04:15:43;20.27;;;13.20;;
19585;SDS011;9939;49.246;9.106;2024-03-06T04:18:09;19.70;;;12.30;;
19585;SDS011;9939;49.246;9.106;2024-03-06T04:20:36;22.57;;;14.20;;
19585;SDS011;9939;49.246;9.106;2024-03-06T04:23:03;24.37;;;13.77;;
19585;SDS011;9939;49.246;9.106;2024-03-06T04:25:30;22.77;;;13.70;;
19585;SDS011;9939;49.246;9.106;2024-03-06T04:27:57;23.27;;;13.70;;
19585;SDS011;9939;49.246;9.106;2024-03-06T04:30:24;21.83;;;13.67;;
19585;SDS011;9939;49.246;9.106;2024-03-06T04:32:51;21.60;;;12.73;;
19585;SDS011;9939;49.246;9.106;2024-03-06T04:35:18;20.33;;;12.53;;
19585;SDS011;9939;49.246;9.106;2024-03-06T04:37:45;19.67;;;12.40;;
19585;SDS011;9939;49.246;9.106;2024-03-06T04:40:12;19.47;;;13.20;;
19585;SDS011;9939;49.246;9.106;2024-03-06T04:42:41;20.10;;;13.20;;
19585;SDS011;9939;49.246;9.106;2024-03-06T04:45:10;22.50;;;13.47;;
19585;SDS011;9939;49.246;9.106;2024-03-06T04:47:41;22.73;;;14.00;;
19585;SDS011;9939;49.246;9.106;2024-03-06T04:50:09;21.43;;;13.90;;
19585;SDS011;9939;49.246;9.106;2024-03-06T04:52:37;22.83;;;12.50;;
19585;SDS011;9939;49.246;9.106;2024-03-06T04:55:05;22.17;;;13.07;;
19585;SDS011;9939;49.246;9.106;2024-03-06T04:57:34;21.13;;;13.73;;
19585;SDS011;9939;49.246;9.106;2024-03-06T05:00:01;20.87;;;13.37;;
19585;SDS011;9939;49.246;9.106;2024-03-06T05:02:32;22.37;;;15.03;;
19585;SDS011;9939;49.246;9.106;2024-03-06T05:05:19;26.60;;;13.93;;
19585;SDS011;9939;49.246;9.106;2024-03-06T05:08:03;22.30;;;14.77;;
19585;SDS011;9939;49.246;9.106;2024-03-06T05:10:47;23.10;;;15.00;;
19585;SDS011;9939;49.246;9.106;2024-03-06T05:13:32;23.90;;;15.53;;
19585;SDS011;9939;49.246;9.106;2024-03-06T05:16:16;28.43;;;17.00;;
19585;SDS011;9939;49.246;9.106;2024-03-06T05:19:01;26.70;;;17.07;;
19585;SDS011;9939;49.246;9.106;2024-03-06T05:21:45;26.50;;;17.17;;
19585;SDS011;9939;49.246;9.106;2024-03-06T05:24:30;27.43;;;17.10;;
19585;SDS011;9939;49.246;9.106;2024-03-06T05:27:14;29.37;;;16.97;;
19585;SDS011;9939;49.246;9.106;2024-03-06T05:30:01;27.93;;;18.00;;
19585;SDS011;9939;49.246;9.106;2024-03-06T05:32:48;30.57;;;18.37;;
19585;SDS011;9939;49.246;9.106;2024-03-06T05:35:32;30.53;;;18.30;;
19585;SDS011;9939;49.246;9.106;2024-03-06T05:38:17;31.87;;;18.60;;
19585;SDS011;9939;49.246;9.106;2024-03-06T05:41:02;32.23;;;17.90;;
19585;SDS011;9939;49.246;9.106;2024-03-06T05:43:47;32.47;;;19.77;;
19585;SDS011;9939;49.246;9.106;2024-03-06T05:46:31;29.93;;;18.93;;
19585;SDS011;9939;49.246;9.106;2024-03-06T05:49:16;30.77;;;19.63;;
19585;SDS011;9939;49.246;9.106;2024-03-06T05:52:00;29.33;;;19.13;;
19585;SDS011;9939;49.246;9.106;2024-03-06T05:54:45;33.27;;;20.43;;
19585;SDS011;9939;49.246;9.106;2024-03-06T05:57:29;30.23;;;20.43;;
19585;SDS011;9939;49.246;9.106;2024-03-06T06:00:14;32.10;;;19.50;;
19585;SDS011;9939;49.246;9.106;2024-03-06T06:02:44;32.20;;;19.47;;
19585;SDS011;9939;49.246;9.106;2024-03-06T06:05:12;26.03;;;16.73;;
19585;SDS011;9939;49.246;9.106;2024-03-06T06:07:49;23.60;;;15.70;;
19585;SDS011;9939;49.246;9.106;2024-03-06T06:10:17;26.33;;;16.40;;
19585;SDS011;9939;49.246;9.106;2024-03-06T06:12:47;23.47;;;15.10;;
19585;SDS011;9939;49.246;9.106;2024-03-06T06:15:15;25.43;;;15.57;;
19585;SDS011;9939;49.246;9.106;2024-03-06T06:17:42;23.60;;;14.53;;
19585;SDS011;9939;49.246;9.106;2024-03-06T06:20:11;23.33;;;15.27;;
19585;SDS011;9939;49.246;9.106;2024-03-06T06:22:42;23.77;;;15.17;;
19585;SDS011;9939;49.246;9.106;2024-03-06T06:25:09;23.63;;;16.70;;
19585;SDS011;9939;49.246;9.106;2024-03-06T06:27:37;27.87;;;17.43;;
19585;SDS011;9939;49.246;9.106;2024-03-06T06:30:05;31.23;;;17.53;;
19585;SDS011;9939;49.246;9.106;2024-03-06T06:32:39;26.80;;;17.13;;
19585;SDS011;9939;49.246;9.106;2024-03-06T06:35:08;29.47;;;18.17;;
19585;SDS011;9939;49.246;9.106;2024-03-06T06:37:37;28.23;;;18.40;;
19585;SDS011;9939;49.246;9.106;2024-03-06T06:40:05;29.43;;;18.90;;
19585;SDS011;9939;49.246;9.106;2024-03-06T06:42:36;28.07;;;18.10;;
19585;SDS011;9939;49.246;9.106;2024-03-06T06:45:03;34.30;;;19.07;;
19585;SDS011;9939;49.246;9.106;2024-03-06T06:47:33;28.93;;;18.40;;
19585;SDS011;9939;49.246;9.106;2024-03-06T06:50:00;29.63;;;19.30;;
19585;SDS011;9939;49.246;9.106;2024-03-06T06:52:31;29.07;;;18.53;;
19585;SDS011;9939;49.246;9.106;2024-03-06T06:54:59;25.97;;;17.93;;
19585;SDS011;9939;49.246;9.106;2024-03-06T06:57:26;25.67;;;17.20;;
19585;SDS011;9939;49.246;9.106;2024-03-06T06:59:53;26.90;;;18.57;;
19585;SDS011;9939;49.246;9.106;2024-03-06T07:02:20;27.07;;;17.97;;
19585;SDS011;9939;49.246;9.106;2024-03-06T07:04:48;26.47;;;18.00;;
19585;SDS011;9939;49.246;9.106;2024-03-06T07:07:15;28.10;;;17.30;;
19585;SDS011;9939;49.246;9.106;2024-03-06T07:09:43;29.30;;;17.73;;
19585;SDS011;9939;49.246;9.106;2024-03-06T07:12:10;26.03;;;16.53;;
19585;SDS011;9939;49.246;9.106;2024-03-06T07:14:37;24.73;;;16.70;;
19585;SDS011;9939;49.246;9.106;2024-03-06T07:17:04;24.43;;;16.30;;
19585;SDS011;9939;49.246;9.106;2024-03-06T07:19:31;22.70;;;16.00;;
19585;SDS011;9939;49.246;9.106;2024-03-06T07:21:58;22.47;;;15.30;;
19585;SDS011;9939;49.246;9.106;2024-03-06T07:24:25;22.07;;;15.70;;
19585;SDS011;9939;49.246;9.106;2024-03-06T07:26:51;22.63;;;15.40;;
19585;SDS011;9939;49.246;9.106;2024-03-06T07:29:18;25.57;;;16.53;;
19585;SDS011;9939;49.246;9.106;2024-03-06T07:31:45;23.77;;;16.20;;
19585;SDS011;9939;49.246;9.106;2024-03-06T07:34:13;26.17;;;16.07;;
19585;SDS011;9939;49.246;9.106;2024-03-06T07:36:41;23.57;;;15.70;;
19585;SDS011;9939;49.246;9.106;2024-03-06T07:39:08;24.73;;;16.03;;
19585;SDS011;9939;49.246;9.106;2024-03-06T07:41:34;24.93;;;16.27;;
19585;SDS011;9939;49.246;9.106;2024-03-06T07:44:02;24.23;;;16.30;;
19585;SDS011;9939;49.246;9.106;2024-03-06T07:46:29;24.63;;;17.67;;
19585;SDS011;9939;49.246;9.106;2024-03-06T07:48:56;24.13;;;16.57;;
19585;SDS011;9939;49.246;9.106;2024-03-06T07:51:22;25.13;;;16.83;;
19585;SDS011;9939;49.246;9.106;2024-03-06T07:53:49;29.77;;;18.00;;
19585;SDS011;9939;49.246;9.106;2024-03-06T07:56:17;25.53;;;17.27;;
19585;SDS011;9939;49.246;9.106;2024-03-06T07:58:44;24.97;;;17.40;;
19585;SDS011;9939;49.246;9.106;2024-03-06T08:01:11;27.17;;;17.80;;
19585;SDS011;9939;49.246;9.106;2024-03-06T08:03:39;29.90;;;19.27;;
19585;SDS011;9939;49.246;9.106;2024-03-06T08:06:07;26.83;;;18.47;;
19585;SDS011;9939;49.246;9.106;2024-03-06T08:08:33;26.33;;;18.17;;
19585;SDS011;9939;49.246;9.106;2024-03-06T08:11:01;26.43;;;18.47;;
19585;SDS011;9939;49.246;9.106;2024-03-06T08:13:28;25.90;;;17.97;;
19585;SDS011;9939;49.246;9.106;2024-03-06T08:15:55;28.70;;;18.63;;
19585;SDS011;9939;49.246;9.106;2024-03-06T08:18:22;29.13;;;19.80;;
19585;SDS011;9939;49.246;9.106;2024-03-06T08:20:49;28.30;;;19.23;;
19585;SDS011;9939;49.246;9.106;2024-03-06T08:23:16;30.30;;;19.20;;
19585;SDS011;9939;49.246;9.106;2024-03-06T08:25:43;28.17;;;17.83;;
19585;SDS011;9939;49.246;9.106;2024-03-06T08:28:10;28.97;;;19.23;;
19585;SDS011;9939;49.246;9.106;2024-03-06T08:30:36;28.43;;;19.63;;
19585;SDS011;9939;49.246;9.106;2024-03-06T08:33:03;26.70;;;18.50;;
19585;SDS011;9939;49.246;9.106;2024-03-06T08:35:30;28.57;;;18.70;;
19585;SDS011;9939;49.246;9.106;2024-03-06T08:37:58;30.13;;;17.93;;
19585;SDS011;9939;49.246;9.106;2024-03-06T08:40:26;27.40;;;18.37;;
19585;SDS011;9939;49.246;9.106;2024-03-06T08:42:53;28.67;;;18.83;;
19585;SDS011;9939;49.246;9.106;2024-03-06T08:45:20;27.27;;;18.37;;
19585;SDS011;9939;49.246;9.106;2024-03-06T08:47:48;31.77;;;19.53;;
19585;SDS011;9939;49.246;9.106;2024-03-06T08:50:16;29.70;;;18.93;;
19585;SDS011;9939;49.246;9.106;2024-03-06T08:52:43;29.53;;;20.47;;
19585;SDS011;9939;49.246;9.106;2024-03-06T08:55:12;28.17;;;19.37;;
19585;SDS011;9939;49.246;9.106;2024-03-06T08:57:39;27.00;;;17.50;;
19585;SDS011;9939;49.246;9.106;2024-03-06T09:00:06;25.30;;;16.30;;
19585;SDS011;9939;49.246;9.106;2024-03-06T09:02:38;26.80;;;16.57;;
19585;SDS011;9939;49.246;9.106;2024-03-06T09:05:08;26.57;;;17.37;;
19585;SDS011;9939;49.246;9.106;2024-03-06T09:07:37;29.43;;;18.37;;
19585;SDS011;9939;49.246;9.106;2024-03-06T09:10:07;27.00;;;18.37;;
19585;SDS011;9939;49.246;9.106;2024-03-06T09:12:35;27.63;;;17.70;;
19585;SDS011;9939;49.246;9.106;2024-03-06T09:15:02;26.50;;;16.10;;
19585;SDS011;9939;49.246;9.106;2024-03-06T09:17:31;24.27;;;16.43;;
19585;SDS011;9939;49.246;9.106;2024-03-06T09:19:58;23.67;;;15.50;;
19585;SDS011;9939;49.246;9.106;2024-03-06T09:22:38;27.03;;;16.27;;
19585;SDS011;9939;49.246;9.106;2024-03-06T09:25:06;23.53;;;15.57;;
19585;SDS011;9939;49.246;9.106;2024-03-06T09:27:33;22.83;;;15.53;;
19585;SDS011;9939;49.246;9.106;2024-03-06T09:30:01;25.43;;;16.33;;
19585;SDS011;9939;49.246;9.106;2024-03-06T09:32:29;22.33;;;14.57;;
19585;SDS011;9939;49.246;9.106;2024-03-06T09:34:57;23.70;;;15.17;;
19585;SDS011;9939;49.246;9.106;2024-03-06T09:37:25;24.20;;;15.27;;
19585;SDS011;9939;49.246;9.106;2024-03-06T09:39:52;27.73;;;15.53;;
19585;SDS011;9939;49.246;9.106;2024-03-06T09:42:19;24.57;;;15.40;;
19585;SDS011;9939;49.246;9.106;2024-03-06T09:44:46;31.33;;;19.37;;
19585;SDS011;9939;49.246;9.106;2024-03-06T09:47:14;28.13;;;15.97;;
19585;SDS011;9939;49.246;9.106;2024-03-06T09:49:51;29.60;;;16.30;;
19585;SDS011;9939;49.246;9.106;2024-03-06T09:52:20;23.03;;;15.13;;
19585;SDS011;9939;49.246;9.106;2024-03-06T09:54:48;23.40;;;14.20;;
19585;SDS011;9939;49.246;9.106;2024-03-06T09:57:15;25.50;;;15.87;;
19585;SDS011;9939;49.246;9.106;2024-03-06T09:59:42;26.23;;;15.70;;
19585;SDS011;9939;49.246;9.106;2024-03-06T10:02:18;20.47;;;14.07;;
19585;SDS011;9939;49.246;9.106;2024-03-06T10:05:06;24.97;;;17.03;;
19585;SDS011;9939;49.246;9.106;2024-03-06T10:07:48;26.37;;;17.13;;
19585;SDS011;9939;49.246;9.106;2024-03-06T10:10:16;24.57;;;15.53;;
19585;SDS011;9939;49.246;9.106;2024-03-06T10:12:46;30.50;;;20.70;;
19585;SDS011;9939;49.246;9.106;2024-03-06T10:15:16;23.37;;;16.20;;
19585;SDS011;9939;49.246;9.106;2024-03-06T10:17:43;26.40;;;16.00;;
19585;SDS011;9939;49.246;9.106;2024-03-06T10:20:16;23.07;;;15.23;;
19585;SDS011;9939;49.246;9.106;2024-03-06T10:22:50;27.77;;;17.13;;
19585;SDS011;9939;49.246;9.106;2024-03-06T10:25:24;24.60;;;14.90;;
19585;SDS011;9939;49.246;9.106;2024-03-06T10:30:33;24.70;;;15.30;;
19585;SDS011;9939;49.246;9.106;2024-03-06T10:33:02;25.03;;;14.33;;
19585;SDS011;9939;49.246;9.106;2024-03-06T10:35:33;26.13;;;16.13;;
19585;SDS011;9939;49.246;9.106;2024-03-06T10:38:01;28.70;;;16.40;;
19585;SDS011;9939;49.246;9.106;2024-03-06T10:40:30;28.13;;;15.70;;
19585;SDS011;9939;49.246;9.106;2024-03-06T10:43:00;30.93;;;17.40;;
19585;SDS011;9939;49.246;9.106;2024-03-06T10:48:25;34.53;;;18.50;;
19585;SDS011;9939;49.246;9.106;2024-03-06T10:50:54;24.77;;;15.67;;
19585;SDS011;9939;49.246;9.106;2024-03-06T10:53:22;26.10;;;15.83;;
19585;SDS011;9939;49.246;9.106;2024-03-06T10:55:55;28.00;;;17.07;;
19585;SDS011;9939;49.246;9.106;2024-03-06T10:58:24;28.47;;;16.67;;
19585;SDS011;9939;49.246;9.106;2024-03-06T11:00:52;24.67;;;14.30;;
19585;SDS011;9939;49.246;9.106;2024-03-06T11:03:19;27.17;;;14.70;;
19585;SDS011;9939;49.246;9.106;2024-03-06T11:05:46;23.63;;;14.67;;
19585;SDS011;9939;49.246;9.106;2024-03-06T11:08:15;24.17;;;14.43;;
19585;SDS011;9939;49.246;9.106;2024-03-06T11:10:43;23.60;;;14.93;;
19585;SDS011;9939;49.246;9.106;2024-03-06T11:15:53;23.53;;;14.57;;
19585;SDS011;9939;49.246;9.106;2024-03-06T11:23:29;25.23;;;14.97;;
19585;SDS011;9939;49.246;9.106;2024-03-06T11:26:00;23.60;;;14.83;;
19585;SDS011;9939;49.246;9.106;2024-03-06T11:28:40;27.70;;;15.73;;
19585;SDS011;9939;49.246;9.106;2024-03-06T11:31:09;32.40;;;16.97;;
19585;SDS011;9939;49.246;9.106;2024-03-06T11:33:42;28.43;;;16.37;;
19585;SDS011;9939;49.246;9.106;2024-03-06T11:38:46;28.23;;;15.43;;
19585;SDS011;9939;49.246;9.106;2024-03-06T11:41:14;25.87;;;15.57;;
19585;SDS011;9939;49.246;9.106;2024-03-06T11:43:44;28.10;;;15.90;;
19585;SDS011;9939;49.246;9.106;2024-03-06T11:46:11;27.63;;;15.93;;
19585;SDS011;9939;49.246;9.106;2024-03-06T11:48:38;26.57;;;16.30;;
19585;SDS011;9939;49.246;9.106;2024-03-06T11:51:06;27.13;;;16.43;;
19585;SDS011;9939;49.246;9.106;2024-03-06T11:53:33;29.53;;;17.03;;
19585;SDS011;9939;49.246;9.106;2024-03-06T11:56:06;27.90;;;17.60;;
19585;SDS011;9939;49.246;9.106;2024-03-06T11:58:35;27.87;;;16.57;;
19585;SDS011;9939;49.246;9.106;2024-03-06T12:01:02;25.63;;;16.13;;
19585;SDS011;9939;49.246;9.106;2024-03-06T12:03:30;28.83;;;17.60;;
19585;SDS011;9939;49.246;9.106;2024-03-06T12:05:57;27.73;;;15.73;;
19585;SDS011;9939;49.246;9.106;2024-03-06T12:08:25;28.00;;;15.40;;
19585;SDS011;9939;49.246;9.106;2024-03-06T12:10:52;24.53;;;15.03;;
19585;SDS011;9939;49.246;9.106;2024-03-06T12:13:21;25.77;;;15.57;;
19585;SDS011;9939;49.246;9.106;2024-03-06T12:15:48;25.53;;;14.97;;
19585;SDS011;9939;49.246;9.106;2024-03-06T12:18:18;24.43;;;15.03;;
19585;SDS011;9939;49.246;9.106;2024-03-06T12:20:45;27.87;;;17.60;;
19585;SDS011;9939;49.246;9.106;2024-03-06T12:23:22;24.43;;;15.63;;
19585;SDS011;9939;49.246;9.106;2024-03-06T12:26:07;30.40;;;17.93;;
19585;SDS011;9939;49.246;9.106;2024-03-06T12:28:36;26.40;;;16.43;;
19585;SDS011;9939;49.246;9.106;2024-03-06T12:31:04;26.70;;;15.93;;
19585;SDS011;9939;49.246;9.106;2024-03-06T12:33:34;24.20;;;16.03;;
19585;SDS011;9939;49.246;9.106;2024-03-06T12:36:02;24.60;;;15.50;;
19585;SDS011;9939;49.246;9.106;2024-03-06T12:38:30;24.20;;;15.10;;
19585;SDS011;9939;49.246;9.106;2024-03-06T12:40:57;25.17;;;15.33;;
19585;SDS011;9939;49.246;9.106;2024-03-06T12:43:25;25.70;;;15.50;;
19585;SDS011;9939;49.246;9.106;2024-03-06T12:45:52;27.17;;;16.00;;
19585;SDS011;9939;49.246;9.106;2024-03-06T12:48:21;26.17;;;16.23;;
19585;SDS011;9939;49.246;9.106;2024-03-06T12:50:49;25.60;;;16.63;;
19585;SDS011;9939;49.246;9.106;2024-03-06T12:53:18;25.87;;;16.83;;
19585;SDS011;9939;49.246;9.106;2024-03-06T12:55:46;28.40;;;17.27;;
19585;SDS011;9939;49.246;9.106;2024-03-06T12:58:13;27.13;;;17.20;;
19585;SDS011;9939;49.246;9.106;2024-03-06T13:00:40;30.30;;;17.47;;
19585;SDS011;9939;49.246;9.106;2024-03-06T13:03:07;25.80;;;16.87;;
19585;SDS011;9939;49.246;9.106;2024-03-06T13:05:34;30.50;;;17.10;;
19585;SDS011;9939;49.246;9.106;2024-03-06T13:08:01;32.13;;;18.47;;
19585;SDS011;9939;49.246;9.106;2024-03-06T13:10:28;33.00;;;19.03;;
19585;SDS011;9939;49.246;9.106;2024-03-06T13:12:55;32.30;;;19.63;;
19585;SDS011;9939;49.246;9.106;2024-03-06T13:15:22;31.40;;;18.47;;
19585;SDS011;9939;49.246;9.106;2024-03-06T13:17:49;30.03;;;18.07;;
19585;SDS011;9939;49.246;9.106;2024-03-06T13:20:16;30.57;;;19.53;;
19585;SDS011;9939;49.246;9.106;2024-03-06T13:22:43;31.83;;;19.67;;
19585;SDS011;9939;49.246;9.106;2024-03-06T13:25:10;33.03;;;19.60;;
19585;SDS011;9939;49.246;9.106;2024-03-06T13:27:37;30.40;;;17.97;;
19585;SDS011;9939;49.246;9.106;2024-03-06T13:30:04;27.87;;;17.80;;
19585;SDS011;9939;49.246;9.106;2024-03-06T13:32:34;27.13;;;17.30;;
19585;SDS011;9939;49.246;9.106;2024-03-06T13:35:01;26.97;;;16.50;;
19585;SDS011;9939;49.246;9.106;2024-03-06T13:37:28;25.07;;;16.90;;
19585;SDS011;9939;49.246;9.106;2024-03-06T13:39:55;29.43;;;16.57;;
19585;SDS011;9939;49.246;9.106;2024-03-06T13:42:27;31.50;;;18.40;;
19585;SDS011;9939;49.246;9.106;2024-03-06T13:44:54;27.27;;;16.13;;
19585;SDS011;9939;49.246;9.106;2024-03-06T13:47:22;26.23;;;15.97;;
19585;SDS011;9939;49.246;9.106;2024-03-06T13:49:49;24.70;;;14.67;;
19585;SDS011;9939;49.246;9.106;2024-03-06T13:52:16;27.17;;;15.63;;
19585;SDS011;9939;49.246;9.106;2024-03-06T13:54:46;24.77;;;15.40;;
19585;SDS011;9939;49.246;9.106;2024-03-06T13:57:16;25.17;;;14.63;;
19585;SDS011;9939;49.246;9.106;2024-03-06T13:59:43;28.17;;;15.70;;
19585;SDS011;9939;49.246;9.106;2024-03-06T14:02:10;28.73;;;15.97;;
19585;SDS011;9939;49.246;9.106;2024-03-06T14:04:37;28.37;;;16.83;;
19585;SDS011;9939;49.246;9.106;2024-03-06T14:07:04;25.70;;;15.00;;
19585;SDS011;9939;49.246;9.106;2024-03-06T14:09:31;30.10;;;16.53;;
19585;SDS011;9939;49.246;9.106;2024-03-06T14:11:58;33.40;;;19.03;;
19585;SDS011;9939;49.246;9.106;2024-03-06T14:14:25;35.30;;;17.57;;
19585;SDS011;9939;49.246;9.106;2024-03-06T14:16:52;27.37;;;15.60;;
19585;SDS011;9939;49.246;9.106;2024-03-06T14:19:19;31.17;;;17.40;;
19585;SDS011;9939;49.246;9.106;2024-03-06T14:21:47;32.03;;;17.27;;
19585;SDS011;9939;49.246;9.106;2024-03-06T14:24:14;29.13;;;15.37;;
19585;SDS011;9939;49.246;9.106;2024-03-06T14:26:41;26.10;;;15.43;;
19585;SDS011;9939;49.246;9.106;2024-03-06T14:29:08;28.27;;;15.47;;
19585;SDS011;9939;49.246;9.106;2024-03-06T14:31:36;28.67;;;16.47;;
19585;SDS011;9939;49.246;9.106;2024-03-06T14:34:03;31.57;;;17.13;;
19585;SDS011;9939;49.246;9.106;2024-03-06T14:36:32;27.20;;;15.83;;
19585;SDS011;9939;49.246;9.106;2024-03-06T14:39:01;27.87;;;16.20;;
19585;SDS011;9939;49.246;9.106;2024-03-06T14:41:27;29.77;;;15.73;;
19585;SDS011;9939;49.246;9.106;2024-03-06T14:43:54;29.27;;;16.17;;
19585;SDS011;9939;49.246;9.106;2024-03-06T14:46:21;26.57;;;15.33;;
19585;SDS011;9939;49.246;9.106;2024-03-06T14:48:48;26.97;;;15.87;;
19585;SDS011;9939;49.246;9.106;2024-03-06T14:51:15;27.90;;;16.33;;
19585;SDS011;9939;49.246;9.106;2024-03-06T14:53:42;29.43;;;17.47;;
19585;SDS011;9939;49.246;9.106;2024-03-06T14:56:09;29.60;;;17.43;;
19585;SDS011;9939;49.246;9.106;2024-03-06T14:58:37;26.97;;;14.87;;
19585;SDS011;9939;49.246;9.106;2024-03-06T15:01:04;28.07;;;15.90;;
19585;SDS011;9939;49.246;9.106;2024-03-06T15:03:31;27.93;;;16.17;;